NCAR-RAP Real-Time Weather Data

Output produced by METARs form (19 June 2019  11:11 UTC)
found at http://weather.rap.ucar.edu/surface/
 
KLYH 191054Z COR 20004KT 5SM BR BKN003 20/20 A2987 RMK AO2 SLP107 T02000200
KLYH 190954Z AUTO 00000KT 10SM OVC003 20/20 A2987 RMK AO2 SLP106 T02000200
KLYH 190854Z AUTO 00000KT 10SM OVC004 21/20 A2988 RMK AO2 SLP110 T02060200 56020
KLYH 190757Z AUTO VRB03KT 3SM R04/2400VP6000FT BR OVC003 20/20 A2990 RMK AO2 T02000200
KLYH 190754Z AUTO 00000KT 1SM R04/2400VP6000FT BR OVC003 20/20 A2990 RMK AO2 SLP115 T02000200
KLYH 190728Z AUTO 00000KT 3/4SM R04/3000VP6000FT BR VV003 19/19 A2990 RMK AO2 T01940194
KLYH 190724Z AUTO 00000KT 1 3/4SM R04/3000VP6000FT BR CLR 20/19 A2990 RMK AO2 T02000194
KLYH 190654Z AUTO 00000KT 10SM FEW004 21/20 A2992 RMK AO2 SLP120 T02060200
KLYH 190646Z AUTO 00000KT 10SM SCT004 21/20 A2992 RMK AO2 T02060200
KLYH 190627Z AUTO 20005KT 10SM BKN004 BKN049 BKN060 21/20 A2993 RMK AO2 T02060200
KLYH 190615Z AUTO 21004KT 10SM SCT004 BKN048 BKN060 21/20 A2993 RMK AO2 T02060200
KLYH 190608Z AUTO 21005KT 10SM BKN004 OVC050 21/20 A2993 RMK AO2 CIG 002V007 T02060200
KLYH 190554Z AUTO 21003KT 10SM OVC005 21/20 A2994 RMK AO2 CIG 002V007 SLP129 60001 T02060200 10211 20206 50004
KLYH 190454Z AUTO 21003KT 10SM BKN004 BKN011 BKN110 21/20 A2996 RMK AO2 RAB18E40 SLP134 P0000 T02060200 403000206
KLYH 190354Z AUTO 17008KT 10SM OVC003 21/21 A2996 RMK AO2 RAE03B25E34 CIG 002V006 SLP135 P0000 T02060206
KLYH 190338Z AUTO 18008KT 9SM BKN002 BKN110 21/21 A2995 RMK AO2 RAE03B25E34 P0000 T02060206
KLYH 190254Z AUTO 00000KT 10SM -RA FEW002 SCT110 21/20 A2993 RMK AO2 RAB48 SLP125 P0000 60001 T02060200 58007
KLYH 190223Z 00000KT 9SM BKN002 21/20 A2994 RMK AO2 T02060200
KLYH 190212Z 00000KT 10SM SCT003 21/20 A2995 RMK AO2 T02060200
KLYH 190154Z 19003KT 10SM CLR 21/20 A2995 RMK AO2 SLP131 T02060200
KLYH 182354Z 00000KT 10SM -RA BKN110 21/21 A2998 RMK AO2 SLP141 P0005 60014 T02110206 10300 20211 50008
KLYH 182312Z 17005KT 8SM -RA SCT016 BKN110 22/21 A2997 RMK AO2 P0001 T02170211
KLYH 182254Z 17008KT 10SM -RA FEW008 OVC018 22/21 A2998 RMK AO2 LTG DSNT SE SLP142 P0003 T02170211
KLYH 182245Z 18009KT 10SM -RA SCT008 OVC016 22/21 A2998 RMK AO2 LTG DSNT SE AND S P0002 T02220211
KLYH 182238Z 18009KT 10SM -RA SCT008 BKN014 OVC075 22/21 A2998 RMK AO2 LTG DSNT SE AND S P0002 T02220211
KLYH 182229Z 17012KT 10SM -RA BKN008 BKN070 OVC100 22/21 A2998 RMK AO2 LTG DSNT S CIG 005V014 P0002 T02220211
KLYH 182221Z 17012G17KT 8SM -RA SCT006 SCT070 OVC110 22/22 A2998 RMK AO2 LTG DSNT SE AND S P0002 T02220217
KLYH 182154Z 19004KT 7SM -RA FEW070 OVC100 22/22 A2996 RMK AO2 LTG DSNT S SLP137 P0004 T02220217
KLYH 182054Z 20003KT 6SM -RA BR FEW042 OVC110 23/22 A2995 RMK AO2 LTG DSNT SE AND S RAB1959 SLP133 P0002 60002 T02280217 56013
KLYH 181954Z 19007KT 10SM SCT110 26/22 A2996 RMK AO2 LTG DSNT SE AND S RAB11E20 SLP135 P0000 T02560217
KLYH 181854Z VRB03KT 10SM SCT037 28/21 A2997 RMK AO2 LTG DSNT SW SLP136 T02830206
KLYH 181754Z 00000KT 10SM SCT080 29/20 A2999 RMK AO2 SLP144 T02890200 10294 20217 58009
KLYH 181654Z VRB06KT 10SM SCT100 29/21 A3001 RMK AO2 SLP151 T02890211
KLYH 181554Z 19009KT 10SM FEW028 SCT100 28/22 A3001 RMK AO2 SLP153 T02780217
KLYH 181454Z 21005KT 10SM BKN100 27/21 A3002 RMK AO2 SLP154 T02670211 50006
KLYH 181354Z VRB06KT 10SM CLR 26/21 A3002 RMK AO2 SLP155 T02560206